Time;durP1;ratioP1;P1;durP2;ratioP2;P2;SDS_P1;SDS_P2;PMS_P1;PMS_P2;Temp;Humidity;BMP_temperature;BMP_pressure;BME280_temperature;BME280_humidity;BME280_pressure;Samples;Min_cycle;Max_cycle;Signal;HPM_P1;HPM_P2
2021/12/10 00:00:23;;;;;;;122.13;54.48;;;;;;;-1.40;85.60;99375.42;1767998;81;21924;-73
2021/12/10 00:02:51;;;;;;;97.05;41.55;;;;;;;-1.40;85.60;99371.50;1796716;77;20997;-72
2021/12/10 00:05:23;;;;;;;127.30;54.95;;;;;;;-1.40;85.60;99368.89;1777808;79;21009;-73
2021/12/10 00:07:49;;;;;;;143.07;57.35;;;;;;;-1.40;85.62;99364.97;1828004;78;20963;-73
2021/12/10 00:10:19;;;;;;;133.50;55.78;;;;;;;-1.39;85.63;99356.18;1795508;79;21507;-73
2021/12/10 00:12:50;;;;;;;135.32;57.60;;;;;;;-1.38;85.63;99357.85;1827530;78;21499;-73
2021/12/10 00:15:22;;;;;;;128.62;54.63;;;;;;;-1.38;85.65;99363.08;1795054;79;20954;-72
2021/12/10 00:17:48;;;;;;;129.85;55.38;;;;;;;-1.39;85.65;99360.10;1827146;78;20964;-73
2021/12/10 00:20:15;;;;;;;134.87;54.38;;;;;;;-1.42;85.66;99353.81;1795577;79;21022;-73
2021/12/10 00:22:50;;;;;;;132.47;55.28;;;;;;;-1.43;85.66;99351.67;1828154;78;20975;-73
2021/12/10 00:25:18;;;;;;;125.47;56.35;;;;;;;-1.42;85.68;99353.81;1793163;80;21173;-73
2021/12/10 00:27:44;;;;;;;132.07;54.60;;;;;;;-1.43;85.67;99346.91;1827687;78;21002;-73
2021/12/10 00:30:17;;;;;;;120.15;53.78;;;;;;;-1.45;85.69;99334.45;1795652;79;20962;-73
2021/12/10 00:32:48;;;;;;;136.70;57.27;;;;;;;-1.43;85.70;99328.61;1827614;78;20971;-73
2021/12/10 00:35:21;;;;;;;129.63;51.85;;;;;;;-1.38;85.71;99338.24;1795439;79;20982;-73
2021/12/10 00:37:48;;;;;;;132.87;54.73;;;;;;;-1.38;85.71;99332.55;1827319;78;21425;-73
2021/12/10 00:40:15;;;;;;;143.43;57.00;;;;;;;-1.39;85.71;99331.34;1795202;79;21331;-73
2021/12/10 00:42:41;;;;;;;129.82;56.42;;;;;;;-1.38;85.71;99330.40;1825732;78;21038;-73
2021/12/10 00:45:10;;;;;;;128.00;55.58;;;;;;;-1.39;85.73;99333.95;1791955;80;21000;-73
2021/12/10 00:47:36;;;;;;;104.15;43.68;;;;;;;-1.41;85.73;99329.34;1825083;78;21460;-73
2021/12/10 00:50:05;;;;;;;134.05;55.00;;;;;;;-1.41;85.72;99322.80;1792151;80;21160;-73
2021/12/10 00:52:31;;;;;;;135.07;56.25;;;;;;;-1.43;85.73;99318.15;1823115;78;21534;-73
2021/12/10 00:54:57;;;;;;;137.72;55.35;;;;;;;-1.43;85.74;99315.53;1819637;78;21518;-73
2021/12/10 00:57:23;;;;;;;123.42;53.50;;;;;;;-1.40;85.74;99315.29;1798151;78;20958;-73
2021/12/10 00:59:50;;;;;;;131.10;55.75;;;;;;;-1.39;85.77;99316.96;1803130;78;21037;-73
2021/12/10 01:02:19;;;;;;;138.57;57.50;;;;;;;-1.41;85.75;99316.27;1777356;80;21121;-73
2021/12/10 01:05:07;;;;;;;133.70;55.63;;;;;;;-1.43;85.75;99300.69;1784575;80;21455;-73
2021/12/10 01:07:34;;;;;;;130.40;56.50;;;;;;;-1.45;85.76;99297.38;1615138;88;21042;-73
2021/12/10 01:10:03;;;;;;;130.03;55.17;;;;;;;-1.46;85.77;99307.47;1631043;86;21098;-73
2021/12/10 01:12:33;;;;;;;;;;;;;;;-1.45;85.78;99311.75;1637846;87;21029;-73
2021/12/10 01:26:24;;;;;;;136.92;54.98;;;;;;;-1.47;85.81;99306.27;1591730;89;21201;-73
2021/12/10 01:28:42;;;;;;;135.12;56.40;;;;;;;-1.44;85.81;99287.75;1601771;89;21312;-73
2021/12/10 01:31:08;;;;;;;130.27;59.00;;;;;;;-1.54;85.94;99257.09;1609547;88;21032;-73
2021/12/10 01:33:34;;;;;;;135.00;57.55;;;;;;;-1.54;85.94;99257.09;1608615;88;25909;-73
2021/12/10 01:36:06;;;;;;;135.63;59.23;;;;;;;-1.45;85.83;99267.78;1628627;88;20919;-72
2021/12/10 01:38:28;;;;;;;131.30;56.95;;;;;;;-1.48;85.85;99256.27;1605721;88;21110;-73
2021/12/10 01:40:57;;;;;;;136.55;57.73;;;;;;;-1.45;85.87;99242.95;1585471;89;21085;-74
2021/12/10 01:43:23;;;;;;;140.68;58.78;;;;;;;-1.41;85.86;99233.91;1603205;89;21509;-73
2021/12/10 01:46:05;;;;;;;136.82;58.60;;;;;;;-1.41;85.87;99231.30;1613158;88;21508;-73
2021/12/10 01:48:32;;;;;;;132.37;56.90;;;;;;;-1.40;85.90;99236.86;1612187;89;21490;-73
2021/12/10 01:50:59;;;;;;;138.62;57.67;;;;;;;-1.39;85.89;99227.59;1611316;89;21083;-73
2021/12/10 01:53:29;;;;;;;136.07;58.05;;;;;;;-1.36;85.87;99216.05;1613334;88;21753;-73
2021/12/10 01:55:58;;;;;;;130.12;56.33;;;;;;;-1.37;85.90;99215.22;1613416;87;21097;-73
2021/12/10 01:58:26;;;;;;;101.42;42.90;;;;;;;-1.46;85.91;99215.13;1622016;87;21606;-72
2021/12/10 02:01:06;;;;;;;146.93;58.68;;;;;;;-1.55;85.91;99221.45;1613707;87;21039;-73
2021/12/10 02:03:32;;;;;;;182.02;72.22;;;;;;;-1.62;85.92;99217.66;1642245;86;21628;-72
2021/12/10 02:05:58;;;;;;;167.80;68.28;;;;;;;-1.71;85.92;99223.63;1623621;87;21190;-72
2021/12/10 02:08:24;;;;;;;154.20;66.57;;;;;;;-1.75;85.95;99216.98;1628573;88;21026;-72
2021/12/10 02:10:50;;;;;;;148.87;60.50;;;;;;;-1.71;85.94;99209.73;1628799;88;26204;-72
2021/12/10 02:13:16;;;;;;;140.05;61.35;;;;;;;-1.71;85.95;99188.83;1628302;87;21042;-72
2021/12/10 02:15:42;;;;;;;140.10;59.80;;;;;;;-1.76;85.95;99188.38;1628623;88;21578;-72
2021/12/10 02:18:09;;;;;;;137.62;58.28;;;;;;;-1.80;85.95;99195.63;1625470;88;21122;-72
2021/12/10 02:20:49;;;;;;;141.47;58.63;;;;;;;-1.80;85.96;99193.02;1624175;88;21076;-72
2021/12/10 02:23:15;;;;;;;138.40;59.03;;;;;;;-1.75;85.92;99188.23;1628436;86;26561;-72
2021/12/10 02:25:41;;;;;;;145.38;58.25;;;;;;;-1.69;85.94;99181.20;1626495;88;20972;-73
2021/12/10 02:28:08;;;;;;;141.28;59.80;;;;;;;-1.64;85.89;99186.91;1626802;88;21138;-73
2021/12/10 02:30:34;;;;;;;139.92;59.20;;;;;;;-1.68;85.91;99198.55;1626834;88;21177;-72
2021/12/10 02:33:00;;;;;;;143.30;59.83;;;;;;;-1.76;85.90;99191.80;1626722;88;21039;-72
2021/12/10 02:35:27;;;;;;;146.22;61.45;;;;;;;-1.79;85.92;99193.34;1626703;88;21035;-72
2021/12/10 02:37:53;;;;;;;146.00;60.83;;;;;;;-1.80;85.90;99200.02;1620713;88;21097;-72
2021/12/10 02:40:21;;;;;;;136.95;56.90;;;;;;;-1.82;85.89;99189.68;1631742;87;21089;-72
2021/12/10 02:42:48;;;;;;;142.55;56.02;;;;;;;-1.81;85.91;99190.05;1631618;87;21518;-72
2021/12/10 02:45:16;;;;;;;128.93;54.73;;;;;;;-1.82;85.89;99192.77;1630322;88;21649;-73
2021/12/10 02:47:43;;;;;;;127.58;52.30;;;;;;;-1.83;85.88;99193.23;1631617;87;21050;-73
2021/12/10 02:50:09;;;;;;;128.27;53.10;;;;;;;-1.82;85.88;99188.38;1631587;87;21048;-73
2021/12/10 02:52:35;;;;;;;133.87;56.65;;;;;;;-1.84;85.89;99186.37;1631694;88;21776;-73
2021/12/10 02:55:02;;;;;;;154.42;57.88;;;;;;;-1.81;85.89;99201.80;1631269;87;21199;-73
2021/12/10 02:57:29;;;;;;;138.30;57.55;;;;;;;-1.79;85.91;99198.58;1631671;88;21875;-73
2021/12/10 02:59:55;;;;;;;132.80;56.48;;;;;;;-1.78;85.91;99195.02;1630985;87;21030;-73
2021/12/10 03:02:24;;;;;;;143.62;58.50;;;;;;;-1.80;85.89;99189.09;1630408;88;21550;-73
2021/12/10 03:04:50;;;;;;;144.25;58.55;;;;;;;-1.78;85.90;99174.12;1630384;87;21047;-73
2021/12/10 03:07:18;;;;;;;141.92;58.23;;;;;;;-1.75;85.90;99173.87;1646357;86;22296;-73
2021/12/10 03:09:47;;;;;;;131.78;58.17;;;;;;;-1.77;85.92;99177.09;1628679;86;21016;-73
2021/12/10 03:12:14;;;;;;;145.30;61.92;;;;;;;-1.78;86.08;99153.22;1655852;86;21023;-73
2021/12/10 03:14:43;;;;;;;135.35;56.70;;;;;;;-1.78;86.08;99153.22;1655712;86;21523;-73
2021/12/10 03:17:16;;;;;;;136.77;56.18;;;;;;;-1.69;85.95;99173.37;1655181;86;21067;-72
2021/12/10 03:19:42;;;;;;;140.40;56.63;;;;;;;-1.71;85.92;99180.52;1655733;86;22587;-73
2021/12/10 03:22:09;;;;;;;138.45;57.70;;;;;;;-1.72;85.93;99171.00;1628972;86;21512;-73
2021/12/10 03:24:35;;;;;;;133.82;56.28;;;;;;;-1.72;85.93;99167.56;1642777;86;26352;-73
2021/12/10 03:27:03;;;;;;;141.00;58.33;;;;;;;-1.74;85.95;99162.47;1655240;86;20944;-73
2021/12/10 03:29:30;;;;;;;149.82;58.13;;;;;;;-1.74;85.97;99157.72;1655578;86;21079;-73
2021/12/10 03:31:57;;;;;;;154.32;61.30;;;;;;;-1.74;85.97;99161.17;1655683;86;21148;-73
2021/12/10 03:34:23;;;;;;;161.73;62.15;;;;;;;-1.75;85.97;99155.58;1655010;86;21364;-73
2021/12/10 03:36:51;;;;;;;170.12;64.82;;;;;;;-1.75;85.99;99146.44;1655728;86;25918;-73
2021/12/10 03:39:20;;;;;;;154.87;63.58;;;;;;;-1.75;86.00;99137.28;1655558;86;21031;-73
2021/12/10 03:41:46;;;;;;;172.25;66.42;;;;;;;-1.74;86.00;99141.57;1655847;86;21610;-73
2021/12/10 03:44:12;;;;;;;160.52;60.90;;;;;;;-1.75;86.00;99141.20;1655677;86;21077;-73
2021/12/10 03:46:38;;;;;;;150.80;58.75;;;;;;;-1.76;86.01;99140.84;1655532;86;26701;-73
2021/12/10 03:49:05;;;;;;;160.88;61.48;;;;;;;-1.73;86.03;99135.87;1655775;86;25790;-73
2021/12/10 03:51:31;;;;;;;153.78;59.90;;;;;;;-1.74;86.02;99135.03;1655808;86;21042;-72
2021/12/10 03:53:58;;;;;;;153.42;61.35;;;;;;;-1.75;86.02;99143.82;1655744;86;21568;-73
2021/12/10 03:56:26;;;;;;;156.78;59.33;;;;;;;-1.76;86.04;99146.58;1655276;85;21493;-73
2021/12/10 03:58:52;;;;;;;148.55;59.48;;;;;;;-1.75;86.05;99151.66;1656389;85;21568;-73
2021/12/10 04:01:22;;;;;;;164.15;63.68;;;;;;;-1.74;86.05;99144.66;1655873;86;21523;-72
2021/12/10 04:03:50;;;;;;;168.10;63.17;;;;;;;-1.71;86.08;99143.93;1655916;86;21070;-72
2021/12/10 04:06:16;;;;;;;161.35;63.13;;;;;;;-1.67;86.09;99136.20;1654788;86;21061;-72
2021/12/10 04:08:42;;;;;;;151.55;62.20;;;;;;;-1.64;86.09;99128.58;1644856;87;22016;-73
2021/12/10 04:11:08;;;;;;;160.32;65.57;;;;;;;-1.64;86.10;99128.11;1645315;87;26689;-72
2021/12/10 04:13:35;;;;;;;163.60;66.95;;;;;;;-1.65;86.13;99138.20;1645280;86;21034;-72
2021/12/10 04:16:03;;;;;;;150.15;61.30;;;;;;;-1.63;86.12;99147.23;1645361;86;21538;-72
2021/12/10 04:18:30;;;;;;;154.75;60.85;;;;;;;-1.66;86.14;99141.80;1609087;87;21014;-73
2021/12/10 04:20:56;;;;;;;166.25;63.20;;;;;;;-1.68;86.13;99137.15;1605542;89;21717;-73
2021/12/10 04:23:23;;;;;;;160.65;63.05;;;;;;;-1.69;86.14;99147.23;1637421;87;27083;-72
2021/12/10 04:25:49;;;;;;;177.90;66.15;;;;;;;-1.70;86.14;99152.13;1628968;88;21042;-73
2021/12/10 04:28:18;;;;;;;164.28;61.53;;;;;;;-1.68;86.13;99147.59;1605845;89;20928;-73
2021/12/10 04:30:46;;;;;;;150.12;57.50;;;;;;;-1.68;86.13;99137.15;1617306;88;21082;-73
2021/12/10 04:33:15;;;;;;;146.80;60.10;;;;;;;-1.69;86.14;99140.70;1631866;88;21165;-73
2021/12/10 04:35:43;;;;;;;114.17;43.00;;;;;;;-1.69;86.17;99147.23;1631923;88;21039;-73
2021/12/10 04:38:09;;;;;;;143.97;56.33;;;;;;;-1.71;86.16;99133.48;1610637;87;21537;-73
2021/12/10 04:40:35;;;;;;;148.82;56.75;;;;;;;-1.69;86.16;99132.86;1630784;86;20888;-73
2021/12/10 04:43:02;;;;;;;150.60;57.15;;;;;;;-1.69;86.16;99132.86;1659374;86;21039;-73
2021/12/10 04:45:28;;;;;;;167.35;65.75;;;;;;;-1.71;86.20;99128.73;1645457;86;21145;-73
2021/12/10 04:47:54;;;;;;;153.53;61.05;;;;;;;-1.70;86.20;99121.25;1631644;88;27228;-73
2021/12/10 04:50:21;;;;;;;181.50;74.97;;;;;;;-1.69;86.22;99125.02;1631713;88;26020;-73
2021/12/10 04:52:47;;;;;;;156.05;63.90;;;;;;;-1.68;86.23;99127.16;1631738;88;21079;-72
2021/12/10 04:55:15;;;;;;;154.72;62.38;;;;;;;-1.67;86.24;99128.36;1631169;87;21721;-72
2021/12/10 04:57:42;;;;;;;155.70;63.38;;;;;;;-1.65;86.25;99114.68;1631791;88;21079;-72
2021/12/10 05:00:12;;;;;;;166.37;63.98;;;;;;;-1.62;86.25;99115.73;1631596;88;21083;-72
2021/12/10 05:02:38;;;;;;;165.75;62.62;;;;;;;-1.57;86.26;99117.51;1631718;88;21032;-72
2021/12/10 05:05:05;;;;;;;155.97;61.18;;;;;;;-1.53;86.28;99115.00;1631569;87;21026;-72
2021/12/10 05:07:35;;;;;;;150.05;59.08;;;;;;;-1.47;86.29;99109.73;1625001;88;21071;-73
2021/12/10 05:09:59;;;;;;;145.95;59.18;;;;;;;-1.44;86.30;99107.38;1617402;88;21509;-73
2021/12/10 05:15:32;;;;;;;153.42;59.30;;;;;;;-1.46;86.33;99098.81;1842527;77;22711;-73
2021/12/10 05:17:58;;;;;;;141.32;57.23;;;;;;;-1.52;86.35;99098.38;1828470;78;21668;-73
2021/12/10 05:20:29;;;;;;;143.40;55.00;;;;;;;-1.48;86.34;99095.50;1823784;78;21163;-73
2021/12/10 05:22:55;;;;;;;150.97;56.25;;;;;;;-1.49;86.33;99086.00;1829370;78;21449;-73
2021/12/10 05:25:21;;;;;;;141.73;55.35;;;;;;;-1.44;86.35;99083.34;1812631;78;20973;-74
2021/12/10 05:27:47;;;;;;;142.47;56.05;;;;;;;-1.39;86.35;99089.50;1778174;78;21552;-73
2021/12/10 05:30:17;;;;;;;150.95;60.38;;;;;;;-1.40;86.38;99086.53;1783033;79;21500;-74
2021/12/10 05:32:43;;;;;;;146.98;61.28;;;;;;;-1.43;86.37;99089.41;1796810;79;21074;-74
2021/12/10 05:35:09;;;;;;;146.65;56.08;;;;;;;-1.40;86.42;99087.84;1774016;79;26224;-74
2021/12/10 05:37:35;;;;;;;148.78;60.40;;;;;;;-1.35;86.40;99088.30;1764499;79;26473;-74
2021/12/10 05:40:01;;;;;;;136.32;55.40;;;;;;;-1.36;86.41;99087.94;1773663;79;20898;-73
2021/12/10 05:42:27;;;;;;;129.10;53.08;;;;;;;-1.37;86.40;99082.38;1765267;79;21021;-74
2021/12/10 05:44:53;;;;;;;148.62;59.20;;;;;;;-1.36;86.40;99091.86;1796036;79;21166;-73
2021/12/10 05:47:19;;;;;;;142.37;58.25;;;;;;;-1.36;86.40;99091.86;1790519;79;26483;-74
2021/12/10 05:49:45;;;;;;;143.25;57.05;;;;;;;-1.38;86.43;99092.48;1795211;79;25844;-74
2021/12/10 05:52:11;;;;;;;140.35;58.28;;;;;;;-1.39;86.44;99097.34;1767658;80;21041;-73
2021/12/10 05:54:38;;;;;;;132.15;56.50;;;;;;;-1.42;86.44;99087.98;1782122;80;20990;-73
2021/12/10 05:57:04;;;;;;;133.35;55.90;;;;;;;-1.43;86.43;99077.16;1780468;79;21152;-72
2021/12/10 05:59:30;;;;;;;134.70;56.40;;;;;;;-1.41;86.44;99069.20;1780422;79;21002;-73
2021/12/10 06:01:56;;;;;;;139.65;57.55;;;;;;;-1.39;86.45;99062.05;1760670;80;25950;-73
2021/12/10 06:04:27;;;;;;;133.37;53.87;;;;;;;-1.36;86.46;99067.86;1763612;80;21045;-72
2021/12/10 06:06:50;;;;;;;131.47;53.28;;;;;;;-1.38;86.44;99066.33;1790083;79;21075;-73
2021/12/10 06:09:16;;;;;;;131.07;54.55;;;;;;;-1.40;86.45;99076.07;1791244;79;21980;-73
2021/12/10 06:11:42;;;;;;;134.95;57.33;;;;;;;-1.39;86.46;99077.73;1799393;78;21479;-73
2021/12/10 06:14:09;;;;;;;149.62;65.87;;;;;;;-1.39;86.47;99068.59;1788670;79;25901;-73
2021/12/10 06:16:35;;;;;;;148.35;63.87;;;;;;;-1.37;86.47;99073.23;1791323;79;21067;-73
2021/12/10 06:19:03;;;;;;;152.22;64.27;;;;;;;-1.35;86.47;99072.61;1784993;79;21008;-73
2021/12/10 06:21:29;;;;;;;133.00;57.13;;;;;;;-1.31;86.48;99071.41;1790374;79;21116;-73
2021/12/10 06:23:55;;;;;;;131.72;52.93;;;;;;;-1.32;86.46;99074.97;1795203;79;21083;-73
2021/12/10 06:26:21;;;;;;;128.78;55.80;;;;;;;-1.34;86.46;99079.51;1795055;79;21063;-73
2021/12/10 06:28:47;;;;;;;127.05;53.02;;;;;;;-1.38;86.46;99074.18;1784206;80;20948;-73
2021/12/10 06:31:17;;;;;;;137.70;54.93;;;;;;;-1.40;86.48;99075.59;1779349;79;20904;-73
2021/12/10 06:33:43;;;;;;;130.82;53.38;;;;;;;-1.43;86.48;99077.64;1785536;79;21059;-73
2021/12/10 06:36:09;;;;;;;128.97;54.80;;;;;;;-1.44;86.48;99077.30;1773590;79;27225;-73
2021/12/10 06:38:35;;;;;;;130.78;55.03;;;;;;;-1.42;86.49;99084.53;1763412;79;25826;-73
2021/12/10 06:41:01;;;;;;;140.75;55.35;;;;;;;-1.43;86.47;99077.64;1789334;79;20932;-74
2021/12/10 06:43:27;;;;;;;130.80;52.00;;;;;;;-1.43;86.45;99070.63;1746298;80;20980;-73
2021/12/10 06:45:53;;;;;;;127.20;51.73;;;;;;;-1.43;86.45;99068.02;1768522;79;21201;-73
2021/12/10 06:48:21;;;;;;;134.82;55.73;;;;;;;-1.45;86.47;99066.48;1785044;80;20993;-74
2021/12/10 06:51:01;;;;;;;133.72;56.10;;;;;;;-1.45;86.45;99065.19;1794610;80;20976;-74
2021/12/10 06:53:27;;;;;;;;;;;;;;;-1.41;86.46;99061.37;1785845;79;21196;-73
2021/12/10 06:55:53;;;;;;;136.95;53.33;;;;;;;-1.40;86.47;99060.39;1776827;79;20196;-73
2021/12/10 06:58:20;;;;;;;139.32;53.85;;;;;;;-1.41;86.46;99067.42;1766395;80;21315;-73
2021/12/10 07:00:51;;;;;;;133.20;54.85;;;;;;;-1.41;86.45;99062.67;1762301;80;21117;-73
2021/12/10 07:03:22;;;;;;;138.35;53.13;;;;;;;-1.38;86.46;99072.88;1786391;80;21006;-74
2021/12/10 07:05:48;;;;;;;141.40;55.17;;;;;;;-1.38;86.47;99068.47;1792118;79;20999;-74
2021/12/10 07:08:15;;;;;;;143.00;55.45;;;;;;;-1.38;86.47;99071.09;1768067;79;21033;-73
2021/12/10 07:10:41;;;;;;;174.10;70.55;;;;;;;-1.38;86.48;99067.64;1773847;79;22922;-73
2021/12/10 07:13:07;;;;;;;152.65;62.03;;;;;;;-1.32;86.50;99074.97;1766220;80;20978;-73
2021/12/10 07:15:38;;;;;;;175.80;80.95;;;;;;;-1.29;86.49;99082.55;1759537;80;25898;-73
2021/12/10 07:18:04;;;;;;;154.03;59.65;;;;;;;-1.26;86.51;99078.37;1746419;81;21110;-73
2021/12/10 07:20:31;;;;;;;160.15;64.10;;;;;;;-1.22;86.52;99083.70;1791642;79;20977;-73
2021/12/10 07:22:57;;;;;;;161.57;60.33;;;;;;;-1.20;86.51;99071.34;1787308;79;21189;-73
2021/12/10 07:25:23;;;;;;;161.80;72.15;;;;;;;-1.18;86.51;99066.80;1795484;79;26611;-74
2021/12/10 07:27:49;;;;;;;268.52;134.72;;;;;;;-1.12;86.53;99059.27;1778326;79;26250;-74
2021/12/10 07:30:15;;;;;;;203.55;90.62;;;;;;;-1.11;86.52;99058.78;1774906;80;21472;-73
2021/12/10 07:32:42;;;;;;;176.02;74.25;;;;;;;-1.05;86.53;99054.34;1789400;78;21014;-73
2021/12/10 07:35:08;;;;;;;179.18;68.33;;;;;;;-0.95;86.55;99057.83;1782971;79;21135;-73
2021/12/10 07:37:36;;;;;;;147.57;57.60;;;;;;;-0.87;86.55;99060.62;1782305;79;21564;-74
2021/12/10 07:40:05;;;;;;;141.70;59.23;;;;;;;-0.82;86.57;99057.63;1785519;79;21024;-73
2021/12/10 07:42:32;;;;;;;160.05;63.25;;;;;;;-0.79;86.58;99052.96;1776266;79;21025;-74
2021/12/10 07:44:57;;;;;;;158.10;64.07;;;;;;;-0.79;86.59;99063.43;1749997;79;21085;-74
2021/12/10 07:47:23;;;;;;;169.90;65.70;;;;;;;-0.76;86.60;99061.85;1781590;79;21858;-74
2021/12/10 07:49:50;;;;;;;151.05;59.08;;;;;;;-0.67;86.62;99059.74;1777556;79;21101;-74
2021/12/10 07:52:24;;;;;;;159.10;61.37;;;;;;;-0.60;86.63;99056.14;1787653;79;21088;-74
2021/12/10 07:54:46;;;;;;;142.75;58.30;;;;;;;-0.53;86.65;99056.77;1774962;80;21509;-74
2021/12/10 07:57:15;;;;;;;153.02;64.47;;;;;;;-0.48;86.68;99060.30;1786576;80;21038;-74
2021/12/10 07:59:41;;;;;;;147.10;62.62;;;;;;;-0.40;86.69;99064.88;1784551;78;21790;-74
2021/12/10 08:02:07;;;;;;;141.57;55.35;;;;;;;-0.29;86.67;99068.70;1794662;78;21035;-73
2021/12/10 08:04:33;;;;;;;131.35;56.42;;;;;;;-0.22;86.64;99069.82;1793493;79;21059;-74
2021/12/10 08:06:59;;;;;;;131.32;55.70;;;;;;;-0.15;86.63;99078.80;1765971;79;21027;-73
2021/12/10 08:09:25;;;;;;;115.35;51.05;;;;;;;-0.21;86.61;99075.41;1785500;78;21944;-73
2021/12/10 08:11:51;;;;;;;123.72;51.13;;;;;;;-0.27;86.62;99076.77;1803754;78;21225;-74
2021/12/10 08:14:17;;;;;;;124.00;54.35;;;;;;;-0.27;86.62;99074.14;1776105;78;20894;-74
2021/12/10 08:16:43;;;;;;;130.78;54.70;;;;;;;-0.27;86.63;99066.77;1776037;79;22092;-74
2021/12/10 08:19:10;;;;;;;129.32;58.15;;;;;;;-0.22;86.57;99072.44;1766566;79;21058;-73
2021/12/10 08:21:36;;;;;;;138.62;58.98;;;;;;;-0.16;86.58;99064.87;1767711;79;21066;-73
2021/12/10 08:24:03;;;;;;;125.87;56.23;;;;;;;-0.13;86.54;99069.83;1773902;79;21919;-74
2021/12/10 08:26:29;;;;;;;132.65;57.60;;;;;;;-0.12;86.57;99061.02;1764170;79;21114;-73
2021/12/10 08:28:55;;;;;;;142.28;58.95;;;;;;;-0.05;86.57;99063.92;1773934;79;21544;-73
2021/12/10 08:31:21;;;;;;;129.95;58.25;;;;;;;-0.07;86.55;99063.23;1761084;79;20993;-73
2021/12/10 08:33:49;;;;;;;137.40;57.45;;;;;;;-0.09;86.55;99068.60;1763481;79;21069;-73
2021/12/10 08:36:19;;;;;;;128.53;54.42;;;;;;;-0.05;86.56;99069.16;1783134;79;21178;-73
2021/12/10 08:38:45;;;;;;;127.22;55.50;;;;;;;-0.02;86.53;99064.95;1779580;79;21073;-73
2021/12/10 08:41:15;;;;;;;132.37;58.00;;;;;;;-0.05;86.53;99067.85;1775625;79;21038;-73
2021/12/10 08:43:42;;;;;;;123.02;52.60;;;;;;;-0.07;86.51;99073.72;1766247;80;21074;-73
2021/12/10 08:46:08;;;;;;;116.20;50.63;;;;;;;-0.06;86.49;99076.66;1759239;79;21128;-72
2021/12/10 08:48:34;;;;;;;115.28;47.85;;;;;;;-0.09;86.47;99071.22;1768979;78;21187;-73
2021/12/10 08:51:04;;;;;;;114.47;49.58;;;;;;;-0.08;86.44;99066.81;1777676;79;21057;-72
2021/12/10 08:53:30;;;;;;;103.47;46.23;;;;;;;-0.10;86.44;99070.03;1754526;78;21010;-73
2021/12/10 08:55:57;;;;;;;113.42;49.93;;;;;;;-0.08;86.42;99066.81;1774052;78;20946;-73
2021/12/10 08:58:23;;;;;;;101.35;46.77;;;;;;;-0.09;86.39;99062.53;1776720;79;21554;-73
2021/12/10 09:00:57;;;;;;;118.35;49.45;;;;;;;-0.09;86.40;99054.19;1779677;78;21206;-73
2021/12/10 09:03:23;;;;;;;108.85;49.08;;;;;;;-0.06;86.37;99066.19;1711523;81;21342;-73
2021/12/10 09:05:49;;;;;;;116.80;53.45;;;;;;;-0.05;86.32;99063.92;1720386;82;20988;-73
2021/12/10 09:08:15;;;;;;;107.75;50.08;;;;;;;0.02;86.35;99067.66;1718677;82;20978;-73
2021/12/10 09:10:43;;;;;;;108.55;49.27;;;;;;;0.05;86.34;99068.69;1707992;82;21442;-73
2021/12/10 09:13:13;;;;;;;109.52;48.30;;;;;;;0.13;86.32;99066.22;1721022;82;21701;-73
2021/12/10 09:15:37;;;;;;;112.60;48.15;;;;;;;0.23;86.31;99070.15;1713668;81;21098;-73
2021/12/10 09:18:03;;;;;;;91.45;40.83;;;;;;;0.21;86.29;99071.59;1719892;82;21054;-74
2021/12/10 09:20:35;;;;;;;90.50;43.08;;;;;;;0.23;86.28;99070.15;1705601;82;20956;-73
2021/12/10 09:23:01;;;;;;;96.25;44.00;;;;;;;0.27;86.25;99065.81;1739628;81;21555;-73
2021/12/10 09:25:27;;;;;;;88.90;44.75;;;;;;;0.32;86.21;99060.97;1738096;81;21162;-73
2021/12/10 09:27:53;;;;;;;94.70;43.90;;;;;;;0.36;86.17;99058.42;1732680;81;20943;-73
2021/12/10 09:30:22;;;;;;;78.47;38.00;;;;;;;0.45;86.18;99056.30;1737420;81;21024;-73
2021/12/10 09:32:48;;;;;;;82.08;41.58;;;;;;;0.52;86.19;99054.42;1735881;81;21101;-73
2021/12/10 09:35:14;;;;;;;86.12;42.43;;;;;;;0.53;86.20;99050.84;1718210;81;21089;-73
2021/12/10 09:37:40;;;;;;;124.82;54.30;;;;;;;0.57;86.20;99056.95;1729414;81;21124;-74
2021/12/10 09:40:13;;;;;;;93.70;43.60;;;;;;;0.61;86.16;99052.26;1724738;81;21147;-73
2021/12/10 09:42:41;;;;;;;97.72;42.83;;;;;;;0.63;86.14;99049.03;1730488;81;21115;-73
2021/12/10 09:45:10;;;;;;;120.67;53.38;;;;;;;0.65;86.08;99044.45;1741040;81;21080;-73
2021/12/10 09:47:37;;;;;;;101.10;51.00;;;;;;;0.68;86.08;99048.11;1742901;81;21517;-73
2021/12/10 09:50:04;;;;;;;91.45;44.93;;;;;;;0.73;86.01;99031.47;1721901;81;21757;-73
2021/12/10 09:52:30;;;;;;;100.75;45.15;;;;;;;0.75;86.01;99028.21;1729183;81;20998;-73
2021/12/10 09:54:56;;;;;;;131.65;64.17;;;;;;;0.74;85.98;99025.27;1723103;81;20919;-73
2021/12/10 09:57:29;;;;;;;90.17;41.65;;;;;;;0.64;85.97;99030.98;1742952;80;21588;-73
2021/12/10 09:59:56;;;;;;;86.08;40.52;;;;;;;0.48;85.96;99036.34;1737803;81;21038;-73
2021/12/10 10:02:22;;;;;;;93.92;42.75;;;;;;;0.52;85.99;99035.58;1768919;80;21586;-73
2021/12/10 10:04:50;;;;;;;96.25;46.30;;;;;;;0.48;85.96;99040.28;1753832;80;21053;-73
2021/12/10 10:07:23;;;;;;;105.43;48.10;;;;;;;0.54;85.94;99036.73;1762095;81;21026;-73
2021/12/10 10:09:53;;;;;;;92.67;44.27;;;;;;;0.61;85.88;99041.77;1715117;81;21079;-73
2021/12/10 10:12:30;;;;;;;109.10;49.00;;;;;;;0.66;85.87;99030.38;1729758;81;21174;-73
2021/12/10 10:14:58;;;;;;;101.05;47.38;;;;;;;0.67;85.83;99024.18;1739641;80;21147;-73
2021/12/10 10:17:24;;;;;;;100.58;45.23;;;;;;;0.65;85.79;99022.16;1749423;80;21066;-73
2021/12/10 10:19:51;;;;;;;89.90;43.65;;;;;;;0.67;85.75;99016.31;1742534;81;21084;-73
2021/12/10 10:22:22;;;;;;;113.70;52.43;;;;;;;0.75;85.74;99011.99;1729258;80;21002;-73
2021/12/10 10:24:47;;;;;;;104.97;45.40;;;;;;;0.82;85.68;99013.55;1733349;80;21192;-73
2021/12/10 10:27:18;;;;;;;87.97;43.17;;;;;;;0.92;85.67;99013.04;1739974;80;21182;-74
2021/12/10 10:29:50;;;;;;;87.45;40.52;;;;;;;1.04;85.65;99004.03;1748466;81;21040;-73
2021/12/10 10:32:19;;;;;;;104.10;47.90;;;;;;;1.04;85.62;98996.16;1746563;80;21598;-73
2021/12/10 10:34:50;;;;;;;89.00;42.13;;;;;;;1.00;85.60;99006.59;1757538;80;21046;-73
2021/12/10 10:37:16;;;;;;;93.10;43.98;;;;;;;0.97;85.57;99006.89;1754289;81;21165;-73
2021/12/10 10:39:43;;;;;;;81.20;38.28;;;;;;;0.94;85.57;99003.25;1750070;81;21222;-72
2021/12/10 10:42:15;;;;;;;85.40;41.20;;;;;;;0.92;85.56;98993.36;1745741;80;21103;-72
2021/12/10 10:44:42;;;;;;;93.80;45.10;;;;;;;0.96;85.53;98990.31;1713680;81;21033;-72
2021/12/10 10:47:08;;;;;;;100.62;51.80;;;;;;;1.04;85.51;98980.89;1709997;82;21140;-72
2021/12/10 10:49:47;;;;;;;100.05;47.17;;;;;;;1.16;85.50;98983.17;1744171;81;21043;-72
2021/12/10 10:52:28;;;;;;;83.67;38.70;;;;;;;1.20;85.49;98990.27;1745590;81;21171;-72
2021/12/10 10:54:54;;;;;;;91.03;41.37;;;;;;;1.14;85.46;98993.00;1747822;80;21050;-73
2021/12/10 10:57:25;;;;;;;90.03;43.50;;;;;;;1.21;85.46;98995.39;1750550;81;21729;-73
2021/12/10 10:59:57;;;;;;;95.62;43.65;;;;;;;1.28;85.47;98990.38;1742057;81;21588;-72
2021/12/10 11:02:26;;;;;;;78.07;38.45;;;;;;;1.31;85.45;98993.55;1747202;82;21062;-72
2021/12/10 11:04:52;;;;;;;83.12;38.02;;;;;;;1.26;85.39;98987.09;1743989;81;21117;-73
2021/12/10 11:07:26;;;;;;;85.05;40.05;;;;;;;1.15;85.35;98993.35;1746341;81;21019;-73
2021/12/10 11:09:59;;;;;;;85.28;38.73;;;;;;;1.16;85.32;98992.36;1733735;81;21041;-72
2021/12/10 11:12:32;;;;;;;94.97;44.27;;;;;;;1.10;85.25;98987.70;1730710;80;21114;-73
2021/12/10 11:14:59;;;;;;;87.08;42.67;;;;;;;1.05;85.23;98997.82;1726913;80;21569;-73
2021/12/10 11:17:32;;;;;;;101.15;46.55;;;;;;;1.12;85.21;98997.59;1759838;81;21164;-73
2021/12/10 11:20:18;;;;;;;86.15;38.98;;;;;;;1.22;85.20;99000.99;1744982;81;21880;-73
2021/12/10 11:22:48;;;;;;;101.25;46.33;;;;;;;1.16;85.16;98994.98;1725771;81;21021;-73
2021/12/10 11:25:19;;;;;;;201.58;85.40;;;;;;;1.17;85.13;98990.08;1717271;82;28698;-74
2021/12/10 11:27:46;;;;;;;143.62;59.67;;;;;;;1.19;85.09;98981.59;1700631;82;21092;-73